createdAt,value
2022-11-30T00:04:45.540Z,71.98
2022-11-30T00:15:15.024Z,71.78
2022-11-30T00:25:42.348Z,72.30
2022-11-30T00:36:12.351Z,72.56
2022-11-30T00:46:39.632Z,72.17
2022-11-30T00:57:07.035Z,71.99
2022-11-30T01:07:34.365Z,72.49
2022-11-30T01:18:02.657Z,72.21
2022-11-30T01:28:30.227Z,72.62
2022-11-30T01:38:58.999Z,72.43
2022-11-30T01:49:31.692Z,72.19
2022-11-30T02:00:03.087Z,72.04
2022-11-30T02:10:33.192Z,71.95
2022-11-30T02:21:08.234Z,71.89
2022-11-30T02:31:44.590Z,71.93
2022-11-30T02:42:14.865Z,72.15
2022-11-30T02:52:42.666Z,71.43
2022-11-30T03:03:10.041Z,71.90
2022-11-30T03:13:37.672Z,71.51
2022-11-30T03:24:05.315Z,71.84
2022-11-30T03:34:32.697Z,71.67
2022-11-30T03:44:59.968Z,71.13
2022-11-30T03:55:27.244Z,70.72
2022-11-30T04:05:54.597Z,71.48
2022-11-30T04:16:21.992Z,71.36
2022-11-30T04:26:49.741Z,70.94
2022-11-30T04:37:17.033Z,71.43
2022-11-30T04:47:44.299Z,72.26
2022-11-30T04:58:12.350Z,72.10
2022-11-30T05:08:40.259Z,72.47
2022-11-30T05:19:08.135Z,72.11
2022-11-30T05:29:36.422Z,72.48
2022-11-30T05:40:04.851Z,72.84
2022-11-30T05:50:32.792Z,72.17
2022-11-30T06:01:00.710Z,72.44
2022-11-30T06:11:28.735Z,72.38
2022-11-30T06:21:56.577Z,72.33
2022-11-30T06:32:24.574Z,72.55
2022-11-30T06:42:52.699Z,72.82
2022-11-30T06:53:20.618Z,72.57
2022-11-30T07:03:48.561Z,72.55
2022-11-30T07:14:16.680Z,72.59
2022-11-30T07:25:02.296Z,72.73
2022-11-30T07:35:30.134Z,73.37
2022-11-30T07:45:58.236Z,73.08
2022-11-30T07:56:28.048Z,73.18
2022-11-30T08:06:56.050Z,73.29
2022-11-30T08:17:24.018Z,73.75
2022-11-30T08:27:51.956Z,73.40
2022-11-30T08:38:19.940Z,73.65
2022-11-30T08:48:48.114Z,73.91
2022-11-30T08:59:15.403Z,73.86
2022-11-30T09:09:42.859Z,73.80
2022-11-30T09:20:11.761Z,73.64
2022-11-30T09:30:39.125Z,73.70
2022-11-30T09:41:16.083Z,73.32
2022-11-30T09:51:47.947Z,73.53
2022-11-30T10:02:19.415Z,73.24
2022-11-30T10:12:54.873Z,73.00
2022-11-30T10:23:37.104Z,73.27
2022-11-30T10:34:13.911Z,73.03
2022-11-30T10:44:45.002Z,72.99
2022-11-30T10:55:19.913Z,72.38
2022-11-30T11:05:47.429Z,72.29
2022-11-30T11:16:16.998Z,72.41
2022-11-30T11:26:52.016Z,72.59
2022-11-30T11:37:23.504Z,72.65
2022-11-30T11:48:00.873Z,72.15
2022-11-30T11:58:38.158Z,71.90
2022-11-30T12:09:14.458Z,72.29
2022-11-30T12:19:51.093Z,72.37
2022-11-30T12:30:26.410Z,71.97
2022-11-30T12:41:05.043Z,71.91
2022-11-30T12:51:34.339Z,71.83
2022-11-30T13:02:11.955Z,72.30
2022-11-30T13:12:43.773Z,72.29
2022-11-30T13:23:18.240Z,71.94
2022-11-30T13:34:00.135Z,72.15
2022-11-30T13:44:32.871Z,71.98
2022-11-30T13:55:00.243Z,72.23
2022-11-30T14:05:38.935Z,72.06
2022-11-30T14:16:06.167Z,72.43
2022-11-30T14:26:39.305Z,71.66
2022-11-30T14:37:15.139Z,71.93
2022-11-30T14:47:46.641Z,71.80
2022-11-30T14:58:22.572Z,71.91
2022-11-30T15:08:52.980Z,71.79
2022-11-30T15:19:26.721Z,72.16
2022-11-30T15:29:59.496Z,72.05
2022-11-30T15:40:33.577Z,71.98
2022-11-30T15:51:01.903Z,71.53
2022-11-30T16:01:31.549Z,71.16
2022-11-30T16:12:03.218Z,71.27
2022-11-30T16:22:30.682Z,71.20
2022-11-30T16:32:58.168Z,71.64
2022-11-30T16:43:26.854Z,71.62
2022-11-30T16:53:54.643Z,71.84
2022-11-30T17:04:24.071Z,71.65
2022-11-30T17:14:51.440Z,71.41
2022-11-30T17:25:20.967Z,71.50
2022-11-30T17:35:48.356Z,70.98
2022-11-30T17:46:17.961Z,71.26
2022-11-30T17:56:45.585Z,71.76
2022-11-30T18:07:12.944Z,72.10
2022-11-30T18:17:40.231Z,71.40
2022-11-30T18:28:07.619Z,70.63
2022-11-30T18:38:37.894Z,70.75
2022-11-30T18:49:07.014Z,70.95
2022-11-30T18:59:34.396Z,71.34
2022-11-30T19:10:02.159Z,70.94
2022-11-30T19:20:29.550Z,70.89
2022-11-30T19:30:57.049Z,70.77
2022-11-30T19:41:24.852Z,70.65
2022-11-30T19:51:52.587Z,70.32
2022-11-30T20:02:20.085Z,70.24
2022-11-30T20:12:47.635Z,70.53
2022-11-30T20:23:15.039Z,70.62
2022-11-30T20:33:42.786Z,70.56
2022-11-30T20:44:12.109Z,70.73
2022-11-30T20:54:39.492Z,70.85
2022-11-30T21:05:07.608Z,70.63
2022-11-30T21:15:35.331Z,70.77
2022-11-30T21:26:07.723Z,70.37
2022-11-30T21:36:35.412Z,70.37
2022-11-30T21:47:02.718Z,70.48
2022-11-30T21:57:30.064Z,70.70
2022-11-30T22:07:57.481Z,70.57
2022-11-30T22:18:24.912Z,70.42
2022-11-30T22:28:54.060Z,70.43
2022-11-30T22:39:22.747Z,71.11
2022-11-30T22:49:48.903Z,70.59
2022-11-30T23:00:17.785Z,70.59
2022-11-30T23:10:45.283Z,70.84
2022-11-30T23:21:16.277Z,70.40
2022-11-30T23:31:44.780Z,70.42
2022-11-30T23:42:12.119Z,70.08
2022-11-30T23:52:39.470Z,69.83
